sensor_id;sensor_type;location;lat;lon;timestamp;pressure;altitude;pressure_sealevel;temperature;humidity
70521;BME280;58442;52.716;23.560;2023-04-20T00:00:42;101745.47;;;11.13;68.34
70521;BME280;58442;52.716;23.560;2023-04-20T00:02:52;101745.47;;;11.13;68.39
70521;BME280;58442;52.716;23.560;2023-04-20T00:04:54;101743.88;;;11.12;68.50
70521;BME280;58442;52.716;23.560;2023-04-20T00:06:56;101745.47;;;11.13;68.53
70521;BME280;58442;52.716;23.560;2023-04-20T00:08:59;101747.07;;;11.14;68.53
70521;BME280;58442;52.716;23.560;2023-04-20T00:11:07;101749.79;;;11.14;68.53
70521;BME280;58442;52.716;23.560;2023-04-20T00:13:08;101741.29;;;11.15;68.62
70521;BME280;58442;52.716;23.560;2023-04-20T00:15:10;101743.20;;;11.15;68.64
70521;BME280;58442;52.716;23.560;2023-04-20T00:17:12;101738.10;;;11.13;68.67
70521;BME280;58442;52.716;23.560;2023-04-20T00:19:22;101744.67;;;11.12;68.74
70521;BME280;58442;52.716;23.560;2023-04-20T00:21:24;101749.32;;;11.12;68.83
70521;BME280;58442;52.716;23.560;2023-04-20T00:23:25;101740.34;;;11.11;68.88
70521;BME280;58442;52.716;23.560;2023-04-20T00:25:27;101743.88;;;11.12;68.84
70521;BME280;58442;52.716;23.560;2023-04-20T00:27:37;101742.26;;;11.11;68.87
70521;BME280;58442;52.716;23.560;2023-04-20T00:29:39;101750.75;;;11.09;68.99
70521;BME280;58442;52.716;23.560;2023-04-20T00:31:41;101745.64;;;11.08;69.02
70521;BME280;58442;52.716;23.560;2023-04-20T00:33:42;101745.64;;;11.08;68.97
70521;BME280;58442;52.716;23.560;2023-04-20T00:35:52;101745.18;;;11.06;69.04
70521;BME280;58442;52.716;23.560;2023-04-20T00:37:53;101748.98;;;11.05;69.08
70521;BME280;58442;52.716;23.560;2023-04-20T00:39:56;101746.61;;;11.03;69.13
70521;BME280;58442;52.716;23.560;2023-04-20T00:42:03;101751.59;;;11.01;69.11
70521;BME280;58442;52.716;23.560;2023-04-20T00:44:07;101748.07;;;11.01;69.10
70521;BME280;58442;52.716;23.560;2023-04-20T00:46:13;101754.63;;;11.00;69.13
70521;BME280;58442;52.716;23.560;2023-04-20T00:48:17;101757.69;;;10.98;69.13
70521;BME280;58442;52.716;23.560;2023-04-20T00:50:19;101756.40;;;10.95;69.12
70521;BME280;58442;52.716;23.560;2023-04-20T00:52:22;101753.21;;;10.93;69.11
70521;BME280;58442;52.716;23.560;2023-04-20T00:54:24;101751.62;;;10.92;69.11
70521;BME280;58442;52.716;23.560;2023-04-20T00:56:26;101753.05;;;10.90;69.14
70521;BME280;58442;52.716;23.560;2023-04-20T00:58:28;101755.30;;;10.88;69.14
70521;BME280;58442;52.716;23.560;2023-04-20T01:00:39;101749.40;;;10.86;69.17
70521;BME280;58442;52.716;23.560;2023-04-20T01:02:40;101757.39;;;10.82;69.26
70521;BME280;58442;52.716;23.560;2023-04-20T01:04:42;101758.05;;;10.79;69.30
70521;BME280;58442;52.716;23.560;2023-04-20T01:06:43;101749.38;;;10.77;69.30
70521;BME280;58442;52.716;23.560;2023-04-20T01:08:54;101751.64;;;10.75;69.34
70521;BME280;58442;52.716;23.560;2023-04-20T01:10:56;101747.99;;;10.71;69.39
70521;BME280;58442;52.716;23.560;2023-04-20T01:12:58;101753.44;;;10.71;69.39
70521;BME280;58442;52.716;23.560;2023-04-20T01:14:59;101756.77;;;10.68;69.37
70521;BME280;58442;52.716;23.560;2023-04-20T01:17:11;101752.30;;;10.63;69.55
70521;BME280;58442;52.716;23.560;2023-04-20T01:19:15;101751.49;;;10.63;69.52
70521;BME280;58442;52.716;23.560;2023-04-20T01:21:17;101759.98;;;10.61;69.52
70521;BME280;58442;52.716;23.560;2023-04-20T01:23:19;101754.09;;;10.59;69.56
70521;BME280;58442;52.716;23.560;2023-04-20T01:25:26;101751.20;;;10.56;69.61
70521;BME280;58442;52.716;23.560;2023-04-20T01:27:27;101749.93;;;10.53;69.65
70521;BME280;58442;52.716;23.560;2023-04-20T01:29:29;101756.32;;;10.49;69.70
70521;BME280;58442;52.716;23.560;2023-04-20T01:31:30;101753.13;;;10.47;69.75
70521;BME280;58442;52.716;23.560;2023-04-20T01:33:41;101748.02;;;10.45;69.80
70521;BME280;58442;52.716;23.560;2023-04-20T01:35:43;101751.86;;;10.44;69.82
70521;BME280;58442;52.716;23.560;2023-04-20T01:37:44;101750.27;;;10.43;69.80
70521;BME280;58442;52.716;23.560;2023-04-20T01:39:46;101749.77;;;10.41;69.74
70521;BME280;58442;52.716;23.560;2023-04-20T01:41:56;101755.54;;;10.39;69.78
70521;BME280;58442;52.716;23.560;2023-04-20T01:43:58;101750.43;;;10.38;69.80
70521;BME280;58442;52.716;23.560;2023-04-20T01:46:00;101751.85;;;10.35;69.83
70521;BME280;58442;52.716;23.560;2023-04-20T01:48:01;101754.10;;;10.33;69.81
70521;BME280;58442;52.716;23.560;2023-04-20T01:50:11;101760.66;;;10.32;69.81
70521;BME280;58442;52.716;23.560;2023-04-20T01:52:12;101759.86;;;10.32;69.81
70521;BME280;58442;52.716;23.560;2023-04-20T01:54:13;101760.98;;;10.31;69.80
70521;BME280;58442;52.716;23.560;2023-04-20T01:56:15;101762.10;;;10.30;69.78
70521;BME280;58442;52.716;23.560;2023-04-20T01:58:26;101766.24;;;10.27;69.84
70521;BME280;58442;52.716;23.560;2023-04-20T02:00:27;101762.73;;;10.27;69.93
70521;BME280;58442;52.716;23.560;2023-04-20T02:02:29;101764.65;;;10.26;69.95
70521;BME280;58442;52.716;23.560;2023-04-20T02:04:30;101764.18;;;10.24;69.92
70521;BME280;58442;52.716;23.560;2023-04-20T02:06:41;101765.56;;;10.22;70.00
70521;BME280;58442;52.716;23.560;2023-04-20T02:08:42;101763.17;;;10.20;70.11
70521;BME280;58442;52.716;23.560;2023-04-20T02:10:44;101764.30;;;10.19;70.15
70521;BME280;58442;52.716;23.560;2023-04-20T02:12:48;101771.65;;;10.19;70.19
70521;BME280;58442;52.716;23.560;2023-04-20T02:14:55;101766.22;;;10.19;70.20
70521;BME280;58442;52.716;23.560;2023-04-20T02:16:57;101774.37;;;10.19;70.22
70521;BME280;58442;52.716;23.560;2023-04-20T02:18:59;101772.78;;;10.18;70.21
70521;BME280;58442;52.716;23.560;2023-04-20T02:21:01;101771.47;;;10.15;70.37
70521;BME280;58442;52.716;23.560;2023-04-20T02:23:11;101780.75;;;10.14;70.27
70521;BME280;58442;52.716;23.560;2023-04-20T02:25:13;101777.24;;;10.13;70.37
70521;BME280;58442;52.716;23.560;2023-04-20T02:27:15;101775.63;;;10.12;70.40
70521;BME280;58442;52.716;23.560;2023-04-20T02:29:16;101770.54;;;10.11;70.40
70521;BME280;58442;52.716;23.560;2023-04-20T02:31:25;101771.66;;;10.10;70.41
70521;BME280;58442;52.716;23.560;2023-04-20T02:33:27;101775.48;;;10.09;70.48
70521;BME280;58442;52.716;23.560;2023-04-20T02:35:28;101771.95;;;10.08;70.51
70521;BME280;58442;52.716;23.560;2023-04-20T02:37:30;101778.20;;;10.09;70.46
70521;BME280;58442;52.716;23.560;2023-04-20T02:39:40;101775.79;;;10.07;70.42
70521;BME280;58442;52.716;23.560;2023-04-20T02:41:41;101776.11;;;10.06;70.45
70521;BME280;58442;52.716;23.560;2023-04-20T02:43:43;101766.37;;;10.05;70.42
70521;BME280;58442;52.716;23.560;2023-04-20T02:45:44;101776.44;;;10.04;70.39
70521;BME280;58442;52.716;23.560;2023-04-20T02:47:55;101772.42;;;10.02;70.40
70521;BME280;58442;52.716;23.560;2023-04-20T02:49:57;101769.23;;;10.00;70.38
70521;BME280;58442;52.716;23.560;2023-04-20T02:51:58;101776.91;;;9.98;70.37
70521;BME280;58442;52.716;23.560;2023-04-20T02:54:00;101769.38;;;9.95;70.36
70521;BME280;58442;52.716;23.560;2023-04-20T02:56:10;101768.91;;;9.93;70.37
70521;BME280;58442;52.716;23.560;2023-04-20T02:58:11;101776.40;;;9.87;70.37
70521;BME280;58442;52.716;23.560;2023-04-20T03:00:14;101778.48;;;9.81;70.48
70521;BME280;58442;52.716;23.560;2023-04-20T03:02:15;101777.83;;;9.76;70.50
70521;BME280;58442;52.716;23.560;2023-04-20T03:04:25;101776.52;;;9.73;70.50
70521;BME280;58442;52.716;23.560;2023-04-20T03:06:27;101781.00;;;9.69;70.50
70521;BME280;58442;52.716;23.560;2023-04-20T03:08:28;101782.73;;;9.65;70.53
70521;BME280;58442;52.716;23.560;2023-04-20T03:10:30;101779.06;;;9.61;70.53
70521;BME280;58442;52.716;23.560;2023-04-20T03:12:40;101775.38;;;9.57;70.53
70521;BME280;58442;52.716;23.560;2023-04-20T03:14:41;101773.30;;;9.54;70.59
70521;BME280;58442;52.716;23.560;2023-04-20T03:16:43;101780.46;;;9.50;70.55
70521;BME280;58442;52.716;23.560;2023-04-20T03:18:45;101784.42;;;9.44;70.65
70521;BME280;58442;52.716;23.560;2023-04-20T03:20:55;101772.59;;;9.40;70.73
70521;BME280;58442;52.716;23.560;2023-04-20T03:22:56;101791.10;;;9.38;70.71
70521;BME280;58442;52.716;23.560;2023-04-20T03:24:58;101783.60;;;9.35;70.76
70521;BME280;58442;52.716;23.560;2023-04-20T03:26:59;101790.43;;;9.32;70.75
70521;BME280;58442;52.716;23.560;2023-04-20T03:29:09;101791.87;;;9.29;70.79
70521;BME280;58442;52.716;23.560;2023-04-20T03:31:11;101787.88;;;9.27;70.77
70521;BME280;58442;52.716;23.560;2023-04-20T03:33:12;101788.16;;;9.25;70.75
70521;BME280;58442;52.716;23.560;2023-04-20T03:35:14;101784.66;;;9.25;70.69
70521;BME280;58442;52.716;23.560;2023-04-20T03:37:24;101792.79;;;9.25;70.67
70521;BME280;58442;52.716;23.560;2023-04-20T03:39:26;101799.34;;;9.24;70.62
70521;BME280;58442;52.716;23.560;2023-04-20T03:41:27;101799.66;;;9.22;70.59
70521;BME280;58442;52.716;23.560;2023-04-20T03:43:29;101796.75;;;9.19;70.61
70521;BME280;58442;52.716;23.560;2023-04-20T03:45:40;101793.88;;;9.15;70.62
70521;BME280;58442;52.716;23.560;2023-04-20T03:47:42;101801.82;;;9.12;70.70
70521;BME280;58442;52.716;23.560;2023-04-20T03:49:43;101804.85;;;9.10;70.78
70521;BME280;58442;52.716;23.560;2023-04-20T03:51:44;101804.05;;;9.10;70.74
70521;BME280;58442;52.716;23.560;2023-04-20T03:53:54;101803.25;;;9.09;70.78
70521;BME280;58442;52.716;23.560;2023-04-20T03:55:56;101804.37;;;9.08;70.83
70521;BME280;58442;52.716;23.560;2023-04-20T03:57:57;101802.45;;;9.09;70.86
70521;BME280;58442;52.716;23.560;2023-04-20T03:59:59;101810.27;;;9.10;70.83
70521;BME280;58442;52.716;23.560;2023-04-20T04:02:09;101809.47;;;9.10;70.88
70521;BME280;58442;52.716;23.560;2023-04-20T04:04:13;101806.28;;;9.08;70.99
70521;BME280;58442;52.716;23.560;2023-04-20T04:06:14;101808.19;;;9.07;71.07
70521;BME280;58442;52.716;23.560;2023-04-20T04:08:16;101811.38;;;9.09;71.06
70521;BME280;58442;52.716;23.560;2023-04-20T04:10:25;101808.36;;;9.11;71.03
70521;BME280;58442;52.716;23.560;2023-04-20T04:12:26;101810.27;;;9.10;71.08
70521;BME280;58442;52.716;23.560;2023-04-20T04:14:28;101814.09;;;9.09;71.13
70521;BME280;58442;52.716;23.560;2023-04-20T04:16:30;101816.81;;;9.09;71.08
70521;BME280;58442;52.716;23.560;2023-04-20T04:18:42;101811.19;;;9.05;71.21
70521;BME280;58442;52.716;23.560;2023-04-20T04:20:44;101812.63;;;9.03;71.37
70521;BME280;58442;52.716;23.560;2023-04-20T04:22:45;101814.86;;;9.01;71.50
70521;BME280;58442;52.716;23.560;2023-04-20T04:24:46;101821.08;;;9.01;71.56
70521;BME280;58442;52.716;23.560;2023-04-20T04:26:54;101816.45;;;9.02;71.55
70521;BME280;58442;52.716;23.560;2023-04-20T04:28:59;101815.65;;;9.01;71.62
70521;BME280;58442;52.716;23.560;2023-04-20T04:31:00;101822.98;;;9.01;71.71
70521;BME280;58442;52.716;23.560;2023-04-20T04:33:01;101824.09;;;9.00;71.78
70521;BME280;58442;52.716;23.560;2023-04-20T04:35:09;101823.79;;;9.01;71.78
70521;BME280;58442;52.716;23.560;2023-04-20T04:37:11;101828.09;;;9.02;71.84
70521;BME280;58442;52.716;23.560;2023-04-20T04:39:14;101831.60;;;9.03;71.84
70521;BME280;58442;52.716;23.560;2023-04-20T04:41:15;101826.66;;;9.05;71.80
70521;BME280;58442;52.716;23.560;2023-04-20T04:43:24;101827.77;;;9.04;71.85
70521;BME280;58442;52.716;23.560;2023-04-20T04:45:25;101834.51;;;9.07;71.91
70521;BME280;58442;52.716;23.560;2023-04-20T04:47:27;101833.40;;;9.08;71.92
70521;BME280;58442;52.716;23.560;2023-04-20T04:49:32;101826.54;;;9.10;71.91
70521;BME280;58442;52.716;23.560;2023-04-20T04:51:39;101831.37;;;9.13;71.91
70521;BME280;58442;52.716;23.560;2023-04-20T04:53:40;101833.44;;;9.16;71.89
70521;BME280;58442;52.716;23.560;2023-04-20T04:55:46;101837.43;;;9.19;71.83
70521;BME280;58442;52.716;23.560;2023-04-20T04:57:48;101834.43;;;9.20;71.77
70521;BME280;58442;52.716;23.560;2023-04-20T04:59:53;101836.03;;;9.21;71.79
70521;BME280;58442;52.716;23.560;2023-04-20T05:01:55;101838.11;;;9.24;71.82
70521;BME280;58442;52.716;23.560;2023-04-20T05:03:56;101840.21;;;9.27;71.77
70521;BME280;58442;52.716;23.560;2023-04-20T05:05:57;101836.54;;;9.32;71.73
70521;BME280;58442;52.716;23.560;2023-04-20T05:08:08;101842.97;;;9.36;71.72
70521;BME280;58442;52.716;23.560;2023-04-20T05:10:10;101843.13;;;9.40;71.64
70521;BME280;58442;52.716;23.560;2023-04-20T05:12:12;101838.69;;;9.44;71.59
70521;BME280;58442;52.716;23.560;2023-04-20T05:14:13;101842.88;;;9.50;71.51
70521;BME280;58442;52.716;23.560;2023-04-20T05:16:23;101847.66;;;9.53;71.45
70521;BME280;58442;52.716;23.560;2023-04-20T05:18:25;101851.84;;;9.59;71.37
70521;BME280;58442;52.716;23.560;2023-04-20T05:20:27;101847.88;;;9.65;71.24
70521;BME280;58442;52.716;23.560;2023-04-20T05:22:28;101851.58;;;9.69;71.17
70521;BME280;58442;52.716;23.560;2023-04-20T05:24:38;101850.01;;;9.77;71.07
70521;BME280;58442;52.716;23.560;2023-04-20T05:26:40;101855.77;;;9.84;70.69
70521;BME280;58442;52.716;23.560;2023-04-20T05:28:42;101856.91;;;9.92;70.80
70521;BME280;58442;52.716;23.560;2023-04-20T05:30:43;101856.46;;;9.98;70.69
70521;BME280;58442;52.716;23.560;2023-04-20T05:32:53;101855.99;;;10.05;70.61
70521;BME280;58442;52.716;23.560;2023-04-20T05:34:54;101868.32;;;10.11;70.48
70521;BME280;58442;52.716;23.560;2023-04-20T05:36:57;101860.03;;;10.16;70.41
70521;BME280;58442;52.716;23.560;2023-04-20T05:38:59;101866.41;;;10.20;70.32
70521;BME280;58442;52.716;23.560;2023-04-20T05:41:08;101856.55;;;10.24;70.20
70521;BME280;58442;52.716;23.560;2023-04-20T05:43:10;101865.65;;;10.28;70.10
70521;BME280;58442;52.716;23.560;2023-04-20T05:45:11;101861.81;;;10.29;70.03
70521;BME280;58442;52.716;23.560;2023-04-20T05:47:13;101860.55;;;10.35;69.83
70521;BME280;58442;52.716;23.560;2023-04-20T05:49:23;101862.80;;;10.42;69.64
70521;BME280;58442;52.716;23.560;2023-04-20T05:51:24;101858.48;;;10.50;69.49
70521;BME280;58442;52.716;23.560;2023-04-20T05:53:33;101859.13;;;10.55;69.32
70521;BME280;58442;52.716;23.560;2023-04-20T05:55:34;101861.05;;;10.63;69.13
70521;BME280;58442;52.716;23.560;2023-04-20T05:57:38;101859.15;;;10.73;68.92
70521;BME280;58442;52.716;23.560;2023-04-20T05:59:43;101860.73;;;10.82;68.68
70521;BME280;58442;52.716;23.560;2023-04-20T06:01:44;101875.15;;;10.91;68.45
70521;BME280;58442;52.716;23.560;2023-04-20T06:03:46;101868.89;;;11.00;68.20
70521;BME280;58442;52.716;23.560;2023-04-20T06:05:52;101857.98;;;11.08;67.95
70521;BME280;58442;52.716;23.560;2023-04-20T06:07:54;101859.41;;;11.14;67.66
70521;BME280;58442;52.716;23.560;2023-04-20T06:09:55;101864.36;;;11.21;67.46
70521;BME280;58442;52.716;23.560;2023-04-20T06:11:57;101865.00;;;11.27;67.39
70521;BME280;58442;52.716;23.560;2023-04-20T06:14:07;101871.88;;;11.33;66.97
70521;BME280;58442;52.716;23.560;2023-04-20T06:16:13;101870.54;;;11.39;67.12
70521;BME280;58442;52.716;23.560;2023-04-20T06:18:15;101869.74;;;11.47;66.92
70521;BME280;58442;52.716;23.560;2023-04-20T06:20:16;101867.31;;;11.54;66.73
70521;BME280;58442;52.716;23.560;2023-04-20T06:22:22;101868.08;;;11.63;66.49
70521;BME280;58442;52.716;23.560;2023-04-20T06:24:24;101870.91;;;11.75;66.31
70521;BME280;58442;52.716;23.560;2023-04-20T06:26:25;101876.81;;;11.86;66.03
70521;BME280;58442;52.716;23.560;2023-04-20T06:28:26;101867.15;;;11.97;65.81
70521;BME280;58442;52.716;23.560;2023-04-20T06:30:37;101872.70;;;12.10;65.48
70521;BME280;58442;52.716;23.560;2023-04-20T06:32:38;101869.73;;;12.23;65.02
70521;BME280;58442;52.716;23.560;2023-04-20T06:34:40;101876.86;;;12.37;64.76
70521;BME280;58442;52.716;23.560;2023-04-20T06:36:42;101867.63;;;12.50;64.48
70521;BME280;58442;52.716;23.560;2023-04-20T06:38:52;101868.16;;;12.64;64.18
70521;BME280;58442;52.716;23.560;2023-04-20T06:40:54;101864.66;;;12.76;63.83
70521;BME280;58442;52.716;23.560;2023-04-20T06:43:01;101864.73;;;12.88;63.47
70521;BME280;58442;52.716;23.560;2023-04-20T06:45:04;101870.24;;;13.00;63.15
70521;BME280;58442;52.716;23.560;2023-04-20T06:47:07;101869.80;;;13.10;62.99
70521;BME280;58442;52.716;23.560;2023-04-20T06:49:08;101867.49;;;13.21;62.72
70521;BME280;58442;52.716;23.560;2023-04-20T06:51:11;101863.52;;;13.31;62.40
70521;BME280;58442;52.716;23.560;2023-04-20T06:53:14;101860.82;;;13.43;62.14
70521;BME280;58442;52.716;23.560;2023-04-20T06:55:22;101861.63;;;13.56;61.80
70521;BME280;58442;52.716;23.560;2023-04-20T06:57:23;101863.60;;;13.67;61.33
70521;BME280;58442;52.716;23.560;2023-04-20T06:59:25;101869.07;;;13.80;61.00
70521;BME280;58442;52.716;23.560;2023-04-20T07:01:26;101865.52;;;13.91;60.67
70521;BME280;58442;52.716;23.560;2023-04-20T07:03:36;101867.11;;;14.05;60.38
70521;BME280;58442;52.716;23.560;2023-04-20T07:05:38;101866.31;;;14.16;60.04
70521;BME280;58442;52.716;23.560;2023-04-20T07:07:39;101862.77;;;14.28;59.73
70521;BME280;58442;52.716;23.560;2023-04-20T07:09:41;101872.87;;;14.40;59.48
70521;BME280;58442;52.716;23.560;2023-04-20T07:11:51;101868.55;;;14.51;59.17
70521;BME280;58442;52.716;23.560;2023-04-20T07:13:52;101874.35;;;14.62;58.74
70521;BME280;58442;52.716;23.560;2023-04-20T07:15:54;101871.91;;;14.72;58.47
70521;BME280;58442;52.716;23.560;2023-04-20T07:17:55;101867.19;;;14.85;58.08
70521;BME280;58442;52.716;23.560;2023-04-20T07:20:07;101872.70;;;15.01;57.67
70521;BME280;58442;52.716;23.560;2023-04-20T07:22:09;101872.28;;;15.15;57.35
70521;BME280;58442;52.716;23.560;2023-04-20T07:24:10;101873.13;;;15.31;56.86
70521;BME280;58442;52.716;23.560;2023-04-20T07:26:11;101871.08;;;15.44;56.53
70521;BME280;58442;52.716;23.560;2023-04-20T07:28:21;101870.32;;;15.59;56.14
70521;BME280;58442;52.716;23.560;2023-04-20T07:30:22;101867.49;;;15.71;55.75
70521;BME280;58442;52.716;23.560;2023-04-20T07:32:23;101864.76;;;15.87;55.19
70521;BME280;58442;52.716;23.560;2023-04-20T07:34:25;101859.34;;;16.06;54.86
70521;BME280;58442;52.716;23.560;2023-04-20T07:36:35;101863.35;;;16.28;54.35
70521;BME280;58442;52.716;23.560;2023-04-20T07:38:39;101862.59;;;16.47;53.77
70521;BME280;58442;52.716;23.560;2023-04-20T07:40:40;101854.71;;;16.65;53.31
70521;BME280;58442;52.716;23.560;2023-04-20T07:42:42;101859.80;;;16.82;52.96
70521;BME280;58442;52.716;23.560;2023-04-20T07:44:50;101858.17;;;17.01;52.55
70521;BME280;58442;52.716;23.560;2023-04-20T07:46:52;101844.71;;;17.15;52.17
70521;BME280;58442;52.716;23.560;2023-04-20T07:48:57;101854.03;;;17.30;51.89
70521;BME280;58442;52.716;23.560;2023-04-20T07:50:58;101854.69;;;17.46;51.59
70521;BME280;58442;52.716;23.560;2023-04-20T07:53:05;101854.12;;;17.60;51.23
70521;BME280;58442;52.716;23.560;2023-04-20T07:55:07;101858.34;;;17.76;50.67
70521;BME280;58442;52.716;23.560;2023-04-20T07:57:12;101858.55;;;17.91;50.21
70521;BME280;58442;52.716;23.560;2023-04-20T07:59:13;101848.52;;;18.02;50.09
70521;BME280;58442;52.716;23.560;2023-04-20T08:01:23;101840.78;;;18.11;49.93
70521;BME280;58442;52.716;23.560;2023-04-20T08:03:27;101847.65;;;18.24;49.58
70521;BME280;58442;52.716;23.560;2023-04-20T08:05:29;101840.72;;;18.34;49.24
70521;BME280;58442;52.716;23.560;2023-04-20T08:07:31;101845.14;;;18.42;48.98
70521;BME280;58442;52.716;23.560;2023-04-20T08:09:35;101837.82;;;18.53;48.81
70521;BME280;58442;52.716;23.560;2023-04-20T08:11:36;101840.78;;;18.68;48.22
70521;BME280;58442;52.716;23.560;2023-04-20T08:13:38;101837.01;;;18.83;47.67
70521;BME280;58442;52.716;23.560;2023-04-20T08:15:39;101838.73;;;18.98;47.31
70521;BME280;58442;52.716;23.560;2023-04-20T08:17:49;101839.28;;;19.14;46.98
70521;BME280;58442;52.716;23.560;2023-04-20T08:19:52;101844.53;;;19.27;46.54
70521;BME280;58442;52.716;23.560;2023-04-20T08:21:54;101837.56;;;19.40;46.00
70521;BME280;58442;52.716;23.560;2023-04-20T08:23:55;101838.85;;;19.53;45.84
70521;BME280;58442;52.716;23.560;2023-04-20T08:26:04;101833.08;;;19.65;45.67
70521;BME280;58442;52.716;23.560;2023-04-20T08:28:05;101838.26;;;19.74;45.40
70521;BME280;58442;52.716;23.560;2023-04-20T08:30:07;101840.30;;;19.84;44.72
70521;BME280;58442;52.716;23.560;2023-04-20T08:32:09;101834.84;;;19.95;44.59
70521;BME280;58442;52.716;23.560;2023-04-20T08:34:19;101829.02;;;20.07;44.38
70521;BME280;58442;52.716;23.560;2023-04-20T08:36:20;101828.66;;;20.16;43.70
70521;BME280;58442;52.716;23.560;2023-04-20T08:38:21;101837.41;;;20.25;43.62
70521;BME280;58442;52.716;23.560;2023-04-20T08:40:24;101840.99;;;20.33;43.34
70521;BME280;58442;52.716;23.560;2023-04-20T08:42:33;101837.46;;;20.39;43.15
70521;BME280;58442;52.716;23.560;2023-04-20T08:44:36;101824.91;;;20.45;42.91
70521;BME280;58442;52.716;23.560;2023-04-20T08:46:37;101826.48;;;20.50;42.61
70521;BME280;58442;52.716;23.560;2023-04-20T08:48:44;101830.84;;;20.55;42.24
70521;BME280;58442;52.716;23.560;2023-04-20T08:50:48;101836.01;;;20.60;42.07
70521;BME280;58442;52.716;23.560;2023-04-20T08:52:50;101836.81;;;20.67;42.02
70521;BME280;58442;52.716;23.560;2023-04-20T08:54:51;101827.75;;;20.78;41.70
70521;BME280;58442;52.716;23.560;2023-04-20T08:56:53;101827.40;;;20.90;41.63
70521;BME280;58442;52.716;23.560;2023-04-20T08:59:03;101825.04;;;20.99;41.44
70521;BME280;58442;52.716;23.560;2023-04-20T09:01:27;101829.02;;;21.09;41.14
70521;BME280;58442;52.716;23.560;2023-04-20T09:03:33;101826.24;;;21.12;40.78
70521;BME280;58442;52.716;23.560;2023-04-20T09:05:34;101825.87;;;21.17;40.49
70521;BME280;58442;52.716;23.560;2023-04-20T09:07:39;101829.83;;;21.23;40.13
70521;BME280;58442;52.716;23.560;2023-04-20T09:09:41;101823.15;;;21.28;40.31
70521;BME280;58442;52.716;23.560;2023-04-20T09:11:58;101819.19;;;21.33;39.88
70521;BME280;58442;52.716;23.560;2023-04-20T09:14:00;101825.52;;;21.37;39.73
70521;BME280;58442;52.716;23.560;2023-04-20T09:16:08;101831.41;;;21.21;39.83
70521;BME280;58442;52.716;23.560;2023-04-20T09:18:11;101822.70;;;21.26;39.57
70521;BME280;58442;52.716;23.560;2023-04-20T09:20:31;101817.57;;;21.24;39.71
70521;BME280;58442;52.716;23.560;2023-04-20T09:22:40;101826.22;;;20.98;39.97
70521;BME280;58442;52.716;23.560;2023-04-20T09:24:41;101825.43;;;20.90;39.69
70521;BME280;58442;52.716;23.560;2023-04-20T09:26:43;101816.72;;;20.85;39.34
70521;BME280;58442;52.716;23.560;2023-04-20T09:28:44;101825.84;;;20.96;39.16
70521;BME280;58442;52.716;23.560;2023-04-20T09:30:55;101814.77;;;21.07;39.09
70521;BME280;58442;52.716;23.560;2023-04-20T09:33:02;101827.38;;;20.83;39.12
70521;BME280;58442;52.716;23.560;2023-04-20T09:35:04;101829.70;;;20.59;39.46
70521;BME280;58442;52.716;23.560;2023-04-20T09:37:08;101827.75;;;20.67;39.51
70521;BME280;58442;52.716;23.560;2023-04-20T09:39:13;101822.65;;;20.80;39.52
70521;BME280;58442;52.716;23.560;2023-04-20T09:41:17;101813.59;;;20.97;39.17
70521;BME280;58442;52.716;23.560;2023-04-20T09:43:19;101821.08;;;20.93;39.22
70521;BME280;58442;52.716;23.560;2023-04-20T09:45:24;101837.63;;;20.79;39.28
70521;BME280;58442;52.716;23.560;2023-04-20T09:47:25;101825.39;;;20.76;39.34
70521;BME280;58442;52.716;23.560;2023-04-20T09:49:31;101824.97;;;20.70;39.30
70521;BME280;58442;52.716;23.560;2023-04-20T09:51:38;101830.45;;;20.56;39.45
70521;BME280;58442;52.716;23.560;2023-04-20T09:53:44;101831.27;;;20.64;39.37
70521;BME280;58442;52.716;23.560;2023-04-20T09:55:49;101826.06;;;20.44;39.88
70521;BME280;58442;52.716;23.560;2023-04-20T09:58:04;101823.23;;;20.34;39.99
70521;BME280;58442;52.716;23.560;2023-04-20T10:00:07;101830.30;;;20.28;39.86
70521;BME280;58442;52.716;23.560;2023-04-20T10:02:12;101826.37;;;20.25;39.84
70521;BME280;58442;52.716;23.560;2023-04-20T10:04:14;101827.17;;;20.33;39.74
70521;BME280;58442;52.716;23.560;2023-04-20T10:06:26;101832.44;;;20.52;39.47
70521;BME280;58442;52.716;23.560;2023-04-20T10:08:40;101819.41;;;20.53;39.45
70521;BME280;58442;52.716;23.560;2023-04-20T10:10:44;101818.66;;;20.70;39.10
70521;BME280;58442;52.716;23.560;2023-04-20T10:12:54;101821.02;;;20.71;38.78
70521;BME280;58442;52.716;23.560;2023-04-20T10:14:56;101809.98;;;20.68;38.72
70521;BME280;58442;52.716;23.560;2023-04-20T10:17:07;101813.95;;;20.74;38.36
70521;BME280;58442;52.716;23.560;2023-04-20T10:19:13;101816.73;;;20.81;38.14
70521;BME280;58442;52.716;23.560;2023-04-20T10:21:15;101817.13;;;20.90;37.99
70521;BME280;58442;52.716;23.560;2023-04-20T10:23:19;101810.83;;;20.97;37.73
70521;BME280;58442;52.716;23.560;2023-04-20T10:25:24;101810.45;;;21.09;37.45
70521;BME280;58442;52.716;23.560;2023-04-20T10:27:28;101808.52;;;21.31;37.29
70521;BME280;58442;52.716;23.560;2023-04-20T10:29:32;101803.39;;;21.37;37.00
70521;BME280;58442;52.716;23.560;2023-04-20T10:31:39;101800.23;;;21.49;36.74
70521;BME280;58442;52.716;23.560;2023-04-20T10:33:48;101784.03;;;21.44;36.53
70521;BME280;58442;52.716;23.560;2023-04-20T10:35:51;101796.29;;;21.36;36.65
70521;BME280;58442;52.716;23.560;2023-04-20T10:38:04;101790.73;;;21.21;36.70
70521;BME280;58442;52.716;23.560;2023-04-20T10:40:06;101801.35;;;21.12;36.42
70521;BME280;58442;52.716;23.560;2023-04-20T10:42:08;101801.37;;;21.19;36.34